createdAt,value
2023-04-13T00:00:31.935Z,0
2023-04-13T00:01:31.939Z,0
2023-04-13T00:02:32.038Z,0
2023-04-13T00:03:32.116Z,0
2023-04-13T00:04:31.935Z,0
2023-04-13T00:05:31.959Z,0
2023-04-13T00:06:31.924Z,0
2023-04-13T00:07:31.945Z,0
2023-04-13T00:08:31.956Z,0
2023-04-13T00:09:31.942Z,0
2023-04-13T00:10:31.958Z,0
2023-04-13T00:11:31.976Z,0
2023-04-13T00:12:31.953Z,0
2023-04-13T00:13:31.940Z,0
2023-04-13T00:14:31.933Z,0
2023-04-13T00:15:31.940Z,0
2023-04-13T00:16:32.021Z,0
2023-04-13T00:17:31.974Z,0
2023-04-13T00:18:31.934Z,0
2023-04-13T00:19:31.934Z,0
2023-04-13T00:20:31.943Z,0
2023-04-13T00:21:31.941Z,0
2023-04-13T00:22:31.946Z,0
2023-04-13T00:23:32.079Z,0
2023-04-13T00:24:31.956Z,0
2023-04-13T00:25:31.951Z,0
2023-04-13T00:26:31.946Z,0
2023-04-13T00:27:31.978Z,0
2023-04-13T00:28:31.927Z,0
2023-04-13T00:29:31.937Z,0
2023-04-13T00:30:31.967Z,0
2023-04-13T00:31:31.997Z,0
2023-04-13T00:32:31.946Z,0
2023-04-13T00:33:31.957Z,0
2023-04-13T00:34:31.938Z,0
2023-04-13T00:35:31.971Z,0
2023-04-13T00:36:31.941Z,0
2023-04-13T00:37:31.957Z,0
2023-04-13T00:38:31.942Z,0
2023-04-13T00:39:31.927Z,0
2023-04-13T00:40:31.963Z,0
2023-04-13T00:41:31.935Z,0
2023-04-13T00:42:31.982Z,0
2023-04-13T00:43:31.943Z,0
2023-04-13T00:44:31.939Z,0
2023-04-13T00:45:31.939Z,0
2023-04-13T00:46:31.953Z,0
2023-04-13T00:47:31.987Z,0
2023-04-13T00:48:31.944Z,0
2023-04-13T00:49:31.941Z,0
2023-04-13T00:50:31.940Z,0
2023-04-13T00:51:31.965Z,0
2023-04-13T00:52:31.956Z,0
2023-04-13T00:53:31.952Z,0
2023-04-13T00:54:31.932Z,0
2023-04-13T00:55:31.959Z,0
2023-04-13T00:56:31.938Z,0
2023-04-13T00:57:31.957Z,0
2023-04-13T00:58:31.938Z,0
2023-04-13T00:59:31.940Z,0
2023-04-13T01:00:31.938Z,0
2023-04-13T01:01:32.037Z,0
2023-04-13T01:02:32.050Z,0
2023-04-13T01:03:31.985Z,0
2023-04-13T01:04:31.961Z,0
2023-04-13T01:05:31.937Z,0
2023-04-13T01:06:31.962Z,0
2023-04-13T01:07:31.962Z,0
2023-04-13T01:08:31.944Z,0
2023-04-13T01:09:31.925Z,0
2023-04-13T01:10:31.952Z,0
2023-04-13T01:11:31.946Z,0
2023-04-13T01:12:31.947Z,0
2023-04-13T01:13:31.996Z,0
2023-04-13T01:14:31.936Z,0
2023-04-13T01:15:31.942Z,0
2023-04-13T01:16:32.056Z,0
2023-04-13T01:17:32.013Z,0
2023-04-13T01:18:31.943Z,0
2023-04-13T01:19:31.942Z,0
2023-04-13T01:20:31.935Z,0
2023-04-13T01:21:31.947Z,0
2023-04-13T01:22:31.962Z,0
2023-04-13T01:23:31.934Z,0
2023-04-13T01:24:31.944Z,0
2023-04-13T01:25:31.968Z,0
2023-04-13T01:26:31.944Z,0
2023-04-13T01:27:31.960Z,0
2023-04-13T01:28:31.938Z,0
2023-04-13T01:29:31.939Z,0
2023-04-13T01:30:31.923Z,0
2023-04-13T01:31:31.938Z,0
2023-04-13T01:32:31.986Z,0
2023-04-13T01:33:31.936Z,0
2023-04-13T01:34:31.946Z,0
2023-04-13T01:35:31.942Z,0
2023-04-13T01:36:31.934Z,0
2023-04-13T01:37:31.968Z,0
2023-04-13T01:38:31.939Z,0
2023-04-13T01:39:31.992Z,0
2023-04-13T01:40:31.959Z,0
2023-04-13T01:41:31.933Z,0
2023-04-13T01:42:31.951Z,0
2023-04-13T01:43:31.942Z,0
2023-04-13T01:44:31.940Z,0
2023-04-13T01:45:31.940Z,0
2023-04-13T01:46:31.974Z,0
2023-04-13T01:47:31.974Z,0
2023-04-13T01:48:31.939Z,0
2023-04-13T01:49:31.941Z,0
2023-04-13T01:50:31.941Z,0
2023-04-13T01:51:31.949Z,0
2023-04-13T01:52:31.948Z,0
2023-04-13T01:53:31.936Z,0
2023-04-13T01:54:31.932Z,0
2023-04-13T01:55:31.957Z,0
2023-04-13T01:56:31.930Z,0
2023-04-13T01:57:31.941Z,0
2023-04-13T01:58:31.936Z,0
2023-04-13T01:59:31.943Z,0
2023-04-13T02:00:31.946Z,0
2023-04-13T02:01:31.938Z,0
2023-04-13T02:02:32.054Z,0
2023-04-13T02:03:31.992Z,0
2023-04-13T02:04:31.948Z,0
2023-04-13T02:05:31.945Z,0
2023-04-13T02:06:31.945Z,0
2023-04-13T02:07:31.943Z,0
2023-04-13T02:08:33.466Z,0
2023-04-13T02:09:31.930Z,0
2023-04-13T02:10:31.948Z,0
2023-04-13T02:11:31.942Z,0
2023-04-13T02:12:31.942Z,0
2023-04-13T02:13:31.943Z,0
2023-04-13T02:14:31.931Z,0
2023-04-13T02:15:31.950Z,0
2023-04-13T02:16:31.939Z,0
2023-04-13T02:17:31.977Z,0
2023-04-13T02:18:31.951Z,0
2023-04-13T02:19:31.935Z,0
2023-04-13T02:20:31.939Z,0
2023-04-13T02:21:31.934Z,0
2023-04-13T02:22:31.965Z,0
2023-04-13T02:23:31.959Z,0
2023-04-13T02:24:31.935Z,0
2023-04-13T02:25:31.951Z,0
2023-04-13T02:26:31.929Z,0
2023-04-13T02:27:31.964Z,0
2023-04-13T02:28:31.944Z,0
2023-04-13T02:29:31.933Z,0
2023-04-13T02:30:31.925Z,0
2023-04-13T02:31:32.090Z,0
2023-04-13T02:32:31.975Z,0
2023-04-13T02:33:31.954Z,0
2023-04-13T02:34:31.935Z,0
2023-04-13T02:35:33.028Z,0
2023-04-13T02:36:31.942Z,0
2023-04-13T02:37:31.958Z,0
2023-04-13T02:38:32.041Z,0
2023-04-13T02:39:31.939Z,0
2023-04-13T02:40:31.983Z,0
2023-04-13T02:41:31.938Z,0
2023-04-13T02:42:31.965Z,0
2023-04-13T02:43:31.947Z,0
2023-04-13T02:44:31.938Z,0
2023-04-13T02:45:32.013Z,0
2023-04-13T02:46:32.975Z,0
2023-04-13T02:47:32.011Z,0
2023-04-13T02:48:31.935Z,0
2023-04-13T02:49:31.952Z,0
2023-04-13T02:50:31.935Z,0
2023-04-13T02:51:31.941Z,0
2023-04-13T02:52:31.945Z,0
2023-04-13T02:53:31.941Z,0
2023-04-13T02:54:31.936Z,0
2023-04-13T02:55:31.952Z,0
2023-04-13T02:56:31.936Z,0
2023-04-13T02:57:31.960Z,0
2023-04-13T02:58:31.922Z,0
2023-04-13T02:59:31.941Z,0
2023-04-13T03:00:31.922Z,0
2023-04-13T03:01:31.957Z,0
2023-04-13T03:02:32.013Z,0
2023-04-13T03:03:31.943Z,0
2023-04-13T03:04:31.974Z,0
2023-04-13T03:05:31.952Z,0
2023-04-13T03:06:31.937Z,0
2023-04-13T03:07:31.944Z,0
2023-04-13T03:08:31.940Z,0
2023-04-13T03:09:31.939Z,0
2023-04-13T03:10:31.959Z,0
2023-04-13T03:11:31.935Z,0
2023-04-13T03:12:31.956Z,0
2023-04-13T03:13:31.943Z,0
2023-04-13T03:14:31.940Z,0
2023-04-13T03:15:31.934Z,0
2023-04-13T03:16:31.988Z,0
2023-04-13T03:17:32.016Z,0
2023-04-13T03:18:31.933Z,0
2023-04-13T03:19:31.945Z,0
2023-04-13T03:20:31.952Z,0
2023-04-13T03:21:31.940Z,0
2023-04-13T03:22:31.976Z,0
2023-04-13T03:23:31.933Z,0
2023-04-13T03:24:31.952Z,0
2023-04-13T03:25:33.867Z,0
2023-04-13T03:26:31.925Z,0
2023-04-13T03:27:31.957Z,0
2023-04-13T03:28:31.949Z,0
2023-04-13T03:29:31.941Z,0
2023-04-13T03:30:31.949Z,0
2023-04-13T03:31:32.015Z,0
2023-04-13T03:32:32.016Z,0
2023-04-13T03:33:31.930Z,0
2023-04-13T03:34:31.942Z,0
2023-04-13T03:35:31.950Z,0
2023-04-13T03:36:31.939Z,0
2023-04-13T03:37:32.121Z,0
2023-04-13T03:38:31.947Z,0
2023-04-13T03:39:31.939Z,0
2023-04-13T03:40:31.960Z,0
2023-04-13T03:41:31.945Z,0
2023-04-13T03:42:31.971Z,0
2023-04-13T03:43:31.947Z,0
2023-04-13T03:44:31.929Z,0
2023-04-13T03:45:31.933Z,0
2023-04-13T03:46:32.033Z,0
2023-04-13T03:47:31.983Z,0
2023-04-13T03:48:31.936Z,0
2023-04-13T03:49:31.932Z,0
2023-04-13T03:50:31.944Z,0
2023-04-13T03:51:31.936Z,0
2023-04-13T03:52:31.969Z,0
2023-04-13T03:53:31.944Z,1
2023-04-13T03:54:31.996Z,1
2023-04-13T03:55:31.955Z,1
2023-04-13T03:56:31.929Z,3
2023-04-13T03:57:31.958Z,3
2023-04-13T03:58:31.927Z,5
2023-04-13T03:59:31.952Z,7
2023-04-13T04:00:31.940Z,9
2023-04-13T04:01:31.936Z,11
2023-04-13T04:02:32.082Z,11
2023-04-13T04:03:32.066Z,14
2023-04-13T04:04:31.965Z,16
2023-04-13T04:05:31.930Z,18
2023-04-13T04:06:31.942Z,22
2023-04-13T04:07:31.943Z,25
2023-04-13T04:08:31.942Z,29
2023-04-13T04:09:31.941Z,33
2023-04-13T04:10:31.949Z,36
2023-04-13T04:11:31.944Z,42
2023-04-13T04:12:31.949Z,49
2023-04-13T04:13:31.932Z,55
2023-04-13T04:14:31.930Z,64
2023-04-13T04:15:31.934Z,71
2023-04-13T04:16:31.963Z,79
2023-04-13T04:17:31.988Z,90
2023-04-13T04:18:31.948Z,101
2023-04-13T04:19:31.973Z,112
2023-04-13T04:20:31.939Z,125
2023-04-13T04:21:31.928Z,132
2023-04-13T04:22:31.945Z,145
2023-04-13T04:23:31.936Z,156
2023-04-13T04:24:31.936Z,171
2023-04-13T04:25:31.953Z,188
2023-04-13T04:26:31.944Z,206
2023-04-13T04:27:31.964Z,226
2023-04-13T04:28:31.933Z,245
2023-04-13T04:29:31.938Z,269
2023-04-13T04:30:31.939Z,294
2023-04-13T04:31:32.192Z,315
2023-04-13T04:32:31.971Z,342
2023-04-13T04:33:31.938Z,374
2023-04-13T04:34:32.015Z,407
2023-04-13T04:35:31.939Z,449
2023-04-13T04:36:31.933Z,493
2023-04-13T04:37:31.957Z,541
2023-04-13T04:38:31.945Z,595
2023-04-13T04:39:31.977Z,648
2023-04-13T04:40:32.101Z,691
2023-04-13T04:41:31.974Z,722
2023-04-13T04:42:31.965Z,733
2023-04-13T04:43:32.037Z,733
2023-04-13T04:44:32.019Z,759
2023-04-13T04:45:32.049Z,775
2023-04-13T04:46:32.084Z,792
2023-04-13T04:47:32.032Z,814
2023-04-13T04:48:32.013Z,811
2023-04-13T04:49:32.102Z,794
2023-04-13T04:50:31.924Z,770
2023-04-13T04:51:31.960Z,739
2023-04-13T04:52:32.032Z,705
2023-04-13T04:53:31.933Z,674
2023-04-13T04:54:31.940Z,656
2023-04-13T04:55:31.940Z,637
2023-04-13T04:56:31.960Z,624
2023-04-13T04:57:31.941Z,617
2023-04-13T04:58:31.939Z,611
2023-04-13T04:59:31.935Z,606
2023-04-13T05:00:31.916Z,608
2023-04-13T05:01:31.945Z,610
2023-04-13T05:02:32.064Z,611
2023-04-13T05:03:31.976Z,613
2023-04-13T05:04:31.931Z,613
2023-04-13T05:05:31.977Z,611
2023-04-13T05:06:31.943Z,615
2023-04-13T05:07:31.955Z,619
2023-04-13T05:08:31.942Z,623
2023-04-13T05:09:31.922Z,628
2023-04-13T05:10:31.938Z,637
2023-04-13T05:11:31.945Z,652
2023-04-13T05:12:31.952Z,672
2023-04-13T05:13:31.940Z,687
2023-04-13T05:14:31.931Z,704
2023-04-13T05:15:31.930Z,718
2023-04-13T05:16:32.168Z,733
2023-04-13T05:17:31.999Z,750
2023-04-13T05:18:31.946Z,766
2023-04-13T05:19:31.939Z,792
2023-04-13T05:20:31.935Z,833
2023-04-13T05:21:31.932Z,881
2023-04-13T05:22:31.959Z,941
2023-04-13T05:23:31.937Z,1010
2023-04-13T05:24:31.936Z,1078
2023-04-13T05:25:31.939Z,1129
2023-04-13T05:26:31.957Z,1175
2023-04-13T05:27:31.931Z,1210
2023-04-13T05:28:31.938Z,1273
2023-04-13T05:29:31.949Z,1351
2023-04-13T05:30:31.944Z,1443
2023-04-13T05:31:32.020Z,1553
2023-04-13T05:32:31.962Z,1640
2023-04-13T05:33:31.940Z,1695
2023-04-13T05:34:31.935Z,1697
2023-04-13T05:35:31.945Z,1653
2023-04-13T05:36:31.964Z,1622
2023-04-13T05:37:31.953Z,1609
2023-04-13T05:38:31.945Z,1607
2023-04-13T05:39:31.942Z,1594
2023-04-13T05:40:31.937Z,1574
2023-04-13T05:41:31.957Z,1550
2023-04-13T05:42:31.997Z,1509
2023-04-13T05:43:31.925Z,1509
2023-04-13T05:44:31.943Z,1509
2023-04-13T05:45:31.970Z,1415
2023-04-13T05:46:31.928Z,1380
2023-04-13T05:47:31.983Z,1360
2023-04-13T05:48:34.293Z,1345
2023-04-13T05:49:31.933Z,1340
2023-04-13T05:50:31.943Z,1340
2023-04-13T05:51:31.942Z,1349
2023-04-13T05:52:31.963Z,1365
2023-04-13T05:53:31.937Z,1376
2023-04-13T05:54:31.928Z,1387
2023-04-13T05:55:31.943Z,1393
2023-04-13T05:56:31.954Z,1400
2023-04-13T05:57:31.951Z,1404
2023-04-13T05:58:31.958Z,1413
2023-04-13T05:59:31.948Z,1428
2023-04-13T06:00:31.936Z,1450
2023-04-13T06:01:31.950Z,1435
2023-04-13T06:02:32.291Z,1306
2023-04-13T06:03:32.143Z,1203
2023-04-13T06:04:32.152Z,1214
2023-04-13T06:05:31.934Z,1293
2023-04-13T06:06:31.942Z,1467
2023-04-13T06:07:31.954Z,1797
2023-04-13T06:08:31.936Z,2080
2023-04-13T06:09:31.939Z,2204
2023-04-13T06:10:31.931Z,2219
2023-04-13T06:11:31.967Z,2178
2023-04-13T06:12:31.955Z,2097
2023-04-13T06:13:31.926Z,2025
2023-04-13T06:14:31.939Z,1948
2023-04-13T06:15:31.952Z,1913
2023-04-13T06:16:32.011Z,1885
2023-04-13T06:17:31.972Z,1876
2023-04-13T06:18:31.937Z,1878
2023-04-13T06:19:31.942Z,1892
2023-04-13T06:20:31.935Z,1916
2023-04-13T06:21:31.977Z,1953
2023-04-13T06:22:31.950Z,2018
2023-04-13T06:23:31.944Z,2106
2023-04-13T06:24:31.944Z,2233
2023-04-13T06:25:31.930Z,2396
2023-04-13T06:26:31.953Z,2567
2023-04-13T06:27:31.946Z,2709
2023-04-13T06:28:31.943Z,2768
2023-04-13T06:29:31.929Z,2751
2023-04-13T06:30:31.980Z,2698
2023-04-13T06:31:31.977Z,2646
2023-04-13T06:32:31.968Z,2613
2023-04-13T06:33:31.931Z,2567
2023-04-13T06:34:31.958Z,2517
2023-04-13T06:35:31.938Z,2460
2023-04-13T06:36:31.948Z,2396
2023-04-13T06:37:31.944Z,2346
2023-04-13T06:38:31.942Z,2337
2023-04-13T06:39:33.056Z,2331
2023-04-13T06:40:31.928Z,2337
2023-04-13T06:41:32.102Z,2353
2023-04-13T06:42:31.955Z,2403
2023-04-13T06:43:31.981Z,2469
2023-04-13T06:44:31.947Z,2469
2023-04-13T06:45:31.934Z,2608
2023-04-13T06:46:31.973Z,2644
2023-04-13T06:47:31.962Z,2639
2023-04-13T06:48:31.937Z,2604
2023-04-13T06:49:31.930Z,2562
2023-04-13T06:50:31.930Z,2506
2023-04-13T06:51:31.940Z,2444
2023-04-13T06:52:31.964Z,2405
2023-04-13T06:53:31.939Z,2377
2023-04-13T06:54:31.938Z,2375
2023-04-13T06:55:31.935Z,2386
2023-04-13T06:56:31.949Z,2420
2023-04-13T06:57:31.955Z,2473
2023-04-13T06:58:31.931Z,2539
2023-04-13T06:59:31.935Z,2615
2023-04-13T07:00:31.976Z,2668
2023-04-13T07:01:32.098Z,2705
2023-04-13T07:02:32.108Z,2750
2023-04-13T07:03:32.264Z,2716
2023-04-13T07:04:33.934Z,2700
2023-04-13T07:05:31.940Z,2676
2023-04-13T07:06:31.947Z,2644
2023-04-13T07:07:31.958Z,2611
2023-04-13T07:08:31.938Z,2576
2023-04-13T07:09:31.944Z,2532
2023-04-13T07:10:31.956Z,2552
2023-04-13T07:11:31.953Z,2571
2023-04-13T07:12:31.945Z,2676
2023-04-13T07:13:31.930Z,2801
2023-04-13T07:14:31.940Z,2877
2023-04-13T07:15:31.985Z,2893
2023-04-13T07:16:32.058Z,2906
2023-04-13T07:17:31.990Z,2976
2023-04-13T07:18:31.937Z,3085
2023-04-13T07:19:31.941Z,3249
2023-04-13T07:20:31.940Z,3472
2023-04-13T07:21:31.943Z,3769
2023-04-13T07:22:31.967Z,4036
2023-04-13T07:23:31.954Z,4213
2023-04-13T07:24:31.938Z,4278
2023-04-13T07:25:31.940Z,4392
2023-04-13T07:26:31.966Z,4480
2023-04-13T07:27:31.936Z,4469
2023-04-13T07:28:31.936Z,4388
2023-04-13T07:29:31.938Z,4243
2023-04-13T07:30:31.934Z,4062
2023-04-13T07:31:31.994Z,3914
2023-04-13T07:32:31.975Z,3835
2023-04-13T07:33:31.922Z,3773
2023-04-13T07:34:31.944Z,3745
2023-04-13T07:35:31.941Z,3765
2023-04-13T07:36:31.953Z,3881
2023-04-13T07:37:31.963Z,3964
2023-04-13T07:38:31.963Z,4082
2023-04-13T07:39:31.939Z,4294
2023-04-13T07:40:31.941Z,4574
2023-04-13T07:41:31.955Z,4783
2023-04-13T07:42:31.945Z,4893
2023-04-13T07:43:31.943Z,4901
2023-04-13T07:44:31.942Z,4901
2023-04-13T07:45:31.934Z,4796
2023-04-13T07:46:31.976Z,4818
2023-04-13T07:47:31.969Z,4923
2023-04-13T07:48:31.940Z,5026
2023-04-13T07:49:31.941Z,5100
2023-04-13T07:50:31.940Z,5022
2023-04-13T07:51:31.929Z,4917
2023-04-13T07:52:31.969Z,4790
2023-04-13T07:53:31.939Z,4654
2023-04-13T07:54:31.935Z,4412
2023-04-13T07:55:31.936Z,4272
2023-04-13T07:56:31.959Z,4237
2023-04-13T07:57:31.957Z,4357
2023-04-13T07:58:31.947Z,4633
2023-04-13T07:59:31.949Z,4867
2023-04-13T08:00:31.942Z,5195
2023-04-13T08:01:31.933Z,5442
2023-04-13T08:02:32.127Z,5494
2023-04-13T08:03:32.104Z,5424
2023-04-13T08:04:32.208Z,5232
2023-04-13T08:05:32.025Z,4941
2023-04-13T08:06:31.944Z,4849
2023-04-13T08:07:31.974Z,5024
2023-04-13T08:08:31.937Z,5308
2023-04-13T08:09:31.935Z,5354
2023-04-13T08:10:31.950Z,5262
2023-04-13T08:11:31.955Z,5299
2023-04-13T08:12:31.960Z,5642
2023-04-13T08:13:31.938Z,6213
2023-04-13T08:14:31.931Z,6384
2023-04-13T08:15:31.943Z,6742
2023-04-13T08:16:31.970Z,6980
2023-04-13T08:17:31.948Z,7302
2023-04-13T08:18:31.926Z,7278
2023-04-13T08:19:31.931Z,7402
2023-04-13T08:20:31.948Z,7444
2023-04-13T08:21:31.937Z,7439
2023-04-13T08:22:31.965Z,7522
2023-04-13T08:23:31.947Z,7586
2023-04-13T08:24:31.940Z,7251
2023-04-13T08:25:31.944Z,7216
2023-04-13T08:26:31.947Z,7229
2023-04-13T08:27:31.948Z,7258
2023-04-13T08:28:32.602Z,7217
2023-04-13T08:29:31.936Z,7125
2023-04-13T08:30:31.934Z,6967
2023-04-13T08:31:32.005Z,6779
2023-04-13T08:32:31.986Z,6594
2023-04-13T08:33:31.934Z,6471
2023-04-13T08:34:31.935Z,6394
2023-04-13T08:35:31.938Z,6305
2023-04-13T08:36:31.979Z,6196
2023-04-13T08:37:31.948Z,6071
2023-04-13T08:38:31.946Z,5938
2023-04-13T08:39:31.948Z,5806
2023-04-13T08:40:31.943Z,5701
2023-04-13T08:41:31.969Z,5623
2023-04-13T08:42:31.954Z,5538
2023-04-13T08:43:31.948Z,5498
2023-04-13T08:44:31.933Z,5498
2023-04-13T08:45:31.963Z,5396
2023-04-13T08:46:31.927Z,5291
2023-04-13T08:47:32.222Z,5227
2023-04-13T08:48:42.528Z,5170
2023-04-13T08:49:31.936Z,5118
2023-04-13T08:50:31.935Z,5011
2023-04-13T08:51:31.935Z,4917
2023-04-13T08:52:31.938Z,4840
2023-04-13T08:53:31.944Z,4725
2023-04-13T08:54:31.937Z,4643
2023-04-13T08:55:31.919Z,4545
2023-04-13T08:56:42.694Z,4469
2023-04-13T08:57:31.959Z,4410
2023-04-13T08:58:31.931Z,4335
2023-04-13T08:59:31.936Z,4279
2023-04-13T09:00:31.933Z,4209
2023-04-13T09:01:31.965Z,4150
2023-04-13T09:02:32.227Z,4090
2023-04-13T09:03:32.018Z,4032
2023-04-13T09:04:32.395Z,4005
2023-04-13T09:05:31.922Z,3961
2023-04-13T09:06:31.930Z,3905
2023-04-13T09:07:31.951Z,3817
2023-04-13T09:08:31.933Z,3717
2023-04-13T09:09:31.935Z,3603
2023-04-13T09:10:32.187Z,3479
2023-04-13T09:11:31.949Z,3378
2023-04-13T09:12:31.946Z,3279
2023-04-13T09:13:31.959Z,3209
2023-04-13T09:14:31.933Z,3157
2023-04-13T09:15:31.940Z,3089
2023-04-13T09:16:31.965Z,3043
2023-04-13T09:17:31.954Z,3009
2023-04-13T09:18:31.962Z,2985
2023-04-13T09:19:31.935Z,2973
2023-04-13T09:20:31.923Z,2962
2023-04-13T09:21:31.951Z,2962
2023-04-13T09:22:31.954Z,2958
2023-04-13T09:23:31.948Z,2998
2023-04-13T09:24:31.939Z,3035
2023-04-13T09:25:31.960Z,3107
2023-04-13T09:26:31.966Z,3162
2023-04-13T09:27:31.954Z,3232
2023-04-13T09:28:31.935Z,3284
2023-04-13T09:29:31.941Z,3325
2023-04-13T09:30:31.926Z,3362
2023-04-13T09:31:32.038Z,3398
2023-04-13T09:32:31.950Z,3411
2023-04-13T09:33:31.942Z,3424
2023-04-13T09:34:31.943Z,3428
2023-04-13T09:35:31.958Z,3437
2023-04-13T09:36:31.936Z,3450
2023-04-13T09:37:31.938Z,3457
2023-04-13T09:38:31.942Z,3426
2023-04-13T09:39:31.941Z,3360
2023-04-13T09:40:31.945Z,3277
2023-04-13T09:41:32.002Z,3185
2023-04-13T09:42:31.963Z,3140
2023-04-13T09:43:31.945Z,3096
2023-04-13T09:44:31.940Z,3096
2023-04-13T09:45:32.020Z,3050
2023-04-13T09:46:31.985Z,3085
2023-04-13T09:47:31.966Z,3153
2023-04-13T09:48:31.942Z,3256
2023-04-13T09:49:31.942Z,3391
2023-04-13T09:50:31.942Z,3570
2023-04-13T09:51:31.947Z,3699
2023-04-13T09:52:31.945Z,3844
2023-04-13T09:53:31.939Z,3996
2023-04-13T09:54:31.941Z,4095
2023-04-13T09:55:31.941Z,4226
2023-04-13T09:56:31.968Z,4366
2023-04-13T09:57:31.964Z,4502
2023-04-13T09:58:31.939Z,4639
2023-04-13T09:59:31.972Z,4786
2023-04-13T10:00:31.943Z,4937
2023-04-13T10:01:32.013Z,5022
2023-04-13T10:02:32.163Z,5118
2023-04-13T10:03:32.124Z,5124
2023-04-13T10:04:31.947Z,5039
2023-04-13T10:05:31.977Z,4932
2023-04-13T10:06:31.937Z,4860
2023-04-13T10:07:31.948Z,4746
2023-04-13T10:08:38.256Z,4674
2023-04-13T10:09:31.972Z,4670
2023-04-13T10:10:31.942Z,4661
2023-04-13T10:11:31.950Z,4700
2023-04-13T10:12:31.977Z,4796
2023-04-13T10:13:31.940Z,4919
2023-04-13T10:14:31.940Z,5037
2023-04-13T10:15:31.953Z,5166
2023-04-13T10:16:31.996Z,5302
2023-04-13T10:17:32.048Z,5433
2023-04-13T10:18:31.982Z,5494
2023-04-13T10:19:31.958Z,5516
2023-04-13T10:20:31.939Z,5632
2023-04-13T10:21:31.941Z,5848
2023-04-13T10:22:31.947Z,6027
2023-04-13T10:23:31.961Z,6187
2023-04-13T10:24:31.957Z,6419
2023-04-13T10:25:34.085Z,6676
2023-04-13T10:26:31.952Z,6983
2023-04-13T10:27:31.952Z,7280
2023-04-13T10:28:31.932Z,7656
2023-04-13T10:29:31.939Z,7968
2023-04-13T10:30:31.950Z,8419
2023-04-13T10:31:31.976Z,8624
2023-04-13T10:32:31.991Z,8876
2023-04-13T10:33:31.947Z,8814
2023-04-13T10:34:31.939Z,8969
2023-04-13T10:35:31.934Z,9083
2023-04-13T10:36:31.950Z,9289
2023-04-13T10:37:31.946Z,9638
2023-04-13T10:38:31.934Z,9498
2023-04-13T10:39:31.944Z,9435
2023-04-13T10:40:31.946Z,9310
2023-04-13T10:41:31.957Z,9427
2023-04-13T10:42:34.584Z,9326
2023-04-13T10:43:31.993Z,9013
2023-04-13T10:44:32.028Z,9013
2023-04-13T10:45:31.938Z,8808
2023-04-13T10:46:31.958Z,9321
2023-04-13T10:47:32.007Z,9708
2023-04-13T10:48:31.936Z,10412
2023-04-13T10:49:31.937Z,11678
2023-04-13T10:50:31.961Z,10710
2023-04-13T10:51:31.945Z,10556
2023-04-13T10:52:31.954Z,10327
2023-04-13T10:53:31.943Z,11011
2023-04-13T10:54:31.936Z,11628
2023-04-13T10:55:31.939Z,12069
2023-04-13T10:56:31.950Z,11883
2023-04-13T10:57:31.948Z,12990
2023-04-13T10:58:33.018Z,13694
2023-04-13T10:59:36.925Z,13669
2023-04-13T11:00:45.485Z,9333
2023-04-13T11:01:31.945Z,8417
2023-04-13T11:02:32.868Z,8397
2023-04-13T11:03:32.143Z,9129
2023-04-13T11:04:31.983Z,8404
2023-04-13T11:05:31.939Z,7730
2023-04-13T11:06:31.934Z,7507
2023-04-13T11:07:31.948Z,7135
2023-04-13T11:08:31.937Z,6919
2023-04-13T11:09:31.939Z,6958
2023-04-13T11:10:31.941Z,7258
2023-04-13T11:11:31.954Z,7417
2023-04-13T11:12:31.964Z,7153
2023-04-13T11:13:31.952Z,6729
2023-04-13T11:14:31.967Z,6762
2023-04-13T11:15:31.941Z,7225
2023-04-13T11:16:32.002Z,7769
2023-04-13T11:17:31.972Z,8146
2023-04-13T11:18:31.937Z,8117
2023-04-13T11:19:31.928Z,7975
2023-04-13T11:20:31.940Z,8023
2023-04-13T11:21:31.939Z,8185
2023-04-13T11:22:31.955Z,8174
2023-04-13T11:23:31.938Z,8159
2023-04-13T11:24:31.943Z,8076
2023-04-13T11:25:31.946Z,8117
2023-04-13T11:26:31.950Z,8631
2023-04-13T11:27:31.948Z,8913
2023-04-13T11:28:31.935Z,9184
2023-04-13T11:29:31.933Z,9319
2023-04-13T11:30:31.945Z,9127
2023-04-13T11:31:31.948Z,8954
2023-04-13T11:32:32.015Z,8694
2023-04-13T11:33:31.938Z,8511
2023-04-13T11:34:31.928Z,8504
2023-04-13T11:35:31.934Z,8661
2023-04-13T11:36:31.934Z,8751
2023-04-13T11:37:31.944Z,9055
2023-04-13T11:38:31.937Z,9238
2023-04-13T11:39:31.940Z,8900
2023-04-13T11:40:31.934Z,8718
2023-04-13T11:41:31.958Z,8895
2023-04-13T11:42:31.944Z,9398
2023-04-13T11:43:31.926Z,9802
2023-04-13T11:44:31.926Z,9802
2023-04-13T11:45:31.956Z,9960
2023-04-13T11:46:31.985Z,9955
2023-04-13T11:47:31.983Z,9125
2023-04-13T11:48:31.938Z,8810
2023-04-13T11:49:31.943Z,8557
2023-04-13T11:50:31.927Z,8945
2023-04-13T11:51:31.934Z,9120
2023-04-13T11:52:31.956Z,8559
2023-04-13T11:53:31.936Z,8213
2023-04-13T11:54:31.960Z,7844
2023-04-13T11:55:36.761Z,7995
2023-04-13T11:56:31.954Z,8102
2023-04-13T11:57:31.947Z,8563
2023-04-13T11:58:31.935Z,8928
2023-04-13T11:59:31.931Z,8467
2023-04-13T12:00:31.936Z,7708
2023-04-13T12:01:34.418Z,7595
2023-04-13T12:02:33.960Z,7732
2023-04-13T12:03:47.067Z,8710
2023-04-13T12:04:32.069Z,9151
2023-04-13T12:05:33.096Z,9582
2023-04-13T12:06:32.174Z,7728
2023-04-13T12:07:32.469Z,6587
2023-04-13T12:08:32.280Z,6421
2023-04-13T12:09:54.600Z,6130
2023-04-13T12:10:40.528Z,6040
2023-04-13T12:12:51.166Z,5865
2023-04-13T12:13:36.337Z,6174
2023-04-13T12:15:43.534Z,5570
2023-04-13T12:17:01.370Z,5577
2023-04-13T12:18:36.962Z,6526
2023-04-13T12:19:32.979Z,6217
2023-04-13T12:20:32.039Z,5936
2023-04-13T12:21:32.834Z,5559
2023-04-13T12:22:38.488Z,5184
2023-04-13T12:23:31.985Z,4871
2023-04-13T12:24:32.903Z,4576
2023-04-13T12:27:16.179Z,4233
2023-04-13T12:27:31.953Z,4211
2023-04-13T12:28:34.439Z,4290
2023-04-13T12:29:31.936Z,4431
2023-04-13T12:30:31.968Z,4585
2023-04-13T12:31:31.957Z,4672
2023-04-13T12:32:31.966Z,4722
2023-04-13T12:33:31.936Z,4744
2023-04-13T12:34:31.939Z,4799
2023-04-13T12:35:31.932Z,4891
2023-04-13T12:36:31.934Z,4989
2023-04-13T12:37:31.958Z,5194
2023-04-13T12:38:33.071Z,5203
2023-04-13T12:39:31.944Z,5223
2023-04-13T12:40:31.952Z,5212
2023-04-13T12:41:31.967Z,5172
2023-04-13T12:42:31.949Z,5107
2023-04-13T12:43:31.940Z,5013
2023-04-13T12:44:37.162Z,5013
2023-04-13T12:45:36.268Z,5024
2023-04-13T12:46:36.261Z,5101
2023-04-13T12:47:36.280Z,5304
2023-04-13T12:48:36.203Z,5538
2023-04-13T12:49:36.205Z,5754
2023-04-13T12:50:36.209Z,5898
2023-04-13T12:51:36.221Z,5866
2023-04-13T12:52:36.215Z,5752
2023-04-13T12:53:36.200Z,5623
2023-04-13T12:54:36.200Z,5262
2023-04-13T12:55:36.218Z,5090
2023-04-13T12:56:36.225Z,4950
2023-04-13T12:57:36.223Z,4777
2023-04-13T12:58:36.204Z,4646
2023-04-13T12:59:36.222Z,4565
2023-04-13T13:00:36.268Z,4585
2023-04-13T13:01:36.237Z,4679
2023-04-13T13:02:36.279Z,4847
2023-04-13T13:03:36.270Z,5050
2023-04-13T13:04:36.227Z,5332
2023-04-13T13:05:36.215Z,5607
2023-04-13T13:06:36.203Z,5850
2023-04-13T13:07:36.207Z,6027
2023-04-13T13:08:39.852Z,6156
2023-04-13T13:09:36.202Z,6220
2023-04-13T13:10:36.232Z,6176
2023-04-13T13:11:36.229Z,6183
2023-04-13T13:12:36.217Z,6189
2023-04-13T13:13:36.234Z,6171
2023-04-13T13:14:36.201Z,6163
2023-04-13T13:15:36.222Z,6215
2023-04-13T13:16:36.215Z,6314
2023-04-13T13:17:36.232Z,6429
2023-04-13T13:18:49.532Z,6784
2023-04-13T13:19:36.206Z,7271
2023-04-13T13:20:36.195Z,7671
2023-04-13T13:21:36.205Z,7686
2023-04-13T13:22:36.219Z,7754
2023-04-13T13:23:36.216Z,8430
2023-04-13T13:24:36.202Z,8703
2023-04-13T13:25:37.937Z,8502
2023-04-13T13:27:00.301Z,8591
2023-04-13T13:28:05.593Z,8650
2023-04-13T13:28:36.205Z,9031
2023-04-13T13:29:36.206Z,8839
2023-04-13T13:30:36.244Z,9936
2023-04-13T13:31:36.202Z,11022
2023-04-13T13:32:36.254Z,13516
2023-04-13T13:33:36.225Z,14898
2023-04-13T13:34:36.213Z,14572
2023-04-13T13:35:36.219Z,13774
2023-04-13T13:36:36.200Z,13259
2023-04-13T13:37:36.218Z,13707
2023-04-13T13:38:36.762Z,13868
2023-04-13T13:39:36.202Z,14104
2023-04-13T13:40:36.187Z,13543
2023-04-13T13:41:36.330Z,13554
2023-04-13T13:42:48.181Z,12087
2023-04-13T13:43:36.210Z,9752
2023-04-13T13:44:37.145Z,9752
2023-04-13T13:45:36.210Z,10067
2023-04-13T13:46:36.234Z,10270
2023-04-13T13:47:36.265Z,14675
2023-04-13T13:48:36.246Z,12985